Anchorage/Lake Hood Seaplane Base, Alaska
Current Conditions -  °F | °C
As of 6:53 AM on Tuesday 21 Oct 2014 (Local Time) from PALH Reporting Station
Overcast Overcast  
Wind Chill: -1°   Ceiling: 7000
Heat Index:   Visibility: 10mi
Dew Point: -1°   Wind: 6mph
Humidity: 85%   Direction: 70°ENE
Pressure: 29.31"   Gusts: NA
Location:  61.18°N, 149.97°W
Report Text: PALH 211453Z 07005KT 10SM OVC070 02/M01 A2931 RMK AO2 SLP927 T00171006 51007
Loading
Personal Weather Stations






























Interactive Weather Map
Tropical Storm Tracking
New forecast layout! Learn more

10-Day Weather Forecast

Advertisements
Track Severe Weather on mobile